Time;durP1;ratioP1;P1;durP2;ratioP2;P2;SDS_P1;SDS_P2;PMS_P1;PMS_P2;Temp;Humidity;BMP_temperature;BMP_pressure;BME280_temperature;BME280_humidity;BME280_pressure;Samples;Min_cycle;Max_cycle;Signal;HPM_P1;HPM_P2
2021/10/18 00:02:09;;;;;;;4.75;3.92;;;;;;;;;;5017295;28;20133;-72
2021/10/18 00:04:54;;;;;;;4.78;3.75;;;;;;;;;;5034518;28;20080;-73
2021/10/18 00:07:38;;;;;;;4.25;3.80;;;;;;;;;;5034144;28;20076;-73
2021/10/18 00:10:23;;;;;;;5.90;4.20;;;;;;;;;;5034238;28;20488;-73
2021/10/18 00:13:08;;;;;;;5.55;3.75;;;;;;;;;;5034102;28;20036;-73
2021/10/18 00:15:52;;;;;;;5.60;4.30;;;;;;;;;;5034178;28;20040;-73
2021/10/18 00:18:37;;;;;;;5.97;4.40;;;;;;;;;;5034057;28;20040;-73
2021/10/18 00:21:21;;;;;;;5.00;4.15;;;;;;;;;;5033901;28;20099;-73
2021/10/18 00:24:06;;;;;;;6.22;4.35;;;;;;;;;;5034034;28;20037;-73
2021/10/18 00:26:50;;;;;;;5.22;4.32;;;;;;;;;;5034078;28;20128;-73
2021/10/18 00:29:35;;;;;;;6.72;4.07;;;;;;;;;;5034007;28;20036;-73
2021/10/18 00:32:19;;;;;;;5.07;4.20;;;;;;;;;;5033753;28;20040;-73
2021/10/18 00:35:04;;;;;;;5.88;4.60;;;;;;;;;;5033848;28;20484;-73
2021/10/18 00:37:49;;;;;;;5.43;4.40;;;;;;;;;;5033643;28;20069;-73
2021/10/18 00:40:33;;;;;;;5.88;4.50;;;;;;;;;;5033656;28;20036;-73
2021/10/18 00:43:18;;;;;;;5.13;4.18;;;;;;;;;;5033809;28;20099;-73
2021/10/18 00:46:02;;;;;;;7.15;4.85;;;;;;;;;;5033425;28;20124;-73
2021/10/18 00:48:47;;;;;;;6.03;4.30;;;;;;;;;;5033615;28;20094;-72
2021/10/18 00:51:32;;;;;;;5.82;4.43;;;;;;;;;;5034043;28;20056;-73
2021/10/18 00:54:16;;;;;;;9.10;4.95;;;;;;;;;;5033478;28;20044;-73
2021/10/18 00:57:01;;;;;;;5.85;4.40;;;;;;;;;;5018310;28;20043;-73
2021/10/18 00:59:46;;;;;;;5.78;4.40;;;;;;;;;;5018382;28;20036;-73
2021/10/18 01:02:30;;;;;;;5.18;4.32;;;;;;;;;;5018369;28;20103;-72
2021/10/18 01:05:15;;;;;;;5.43;4.30;;;;;;;;;;5004751;28;20036;-73
2021/10/18 01:07:59;;;;;;;6.28;4.47;;;;;;;;;;5033186;28;20128;-73
2021/10/18 01:10:44;;;;;;;5.60;4.50;;;;;;;;;;5016937;28;20112;-73
2021/10/18 01:13:29;;;;;;;5.82;4.40;;;;;;;;;;5033198;28;20040;-73
2021/10/18 01:16:15;;;;;;;6.57;4.63;;;;;;;;;;5033035;28;20068;-73
2021/10/18 01:19:09;;;;;;;5.97;4.38;;;;;;;;;;5018240;28;20036;-73
2021/10/18 01:21:58;;;;;;;6.15;4.47;;;;;;;;;;5032978;28;20052;-73
2021/10/18 01:24:43;;;;;;;6.65;4.35;;;;;;;;;;5004064;28;20074;-73
2021/10/18 01:27:27;;;;;;;5.85;4.07;;;;;;;;;;5032562;28;20048;-73
2021/10/18 01:30:12;;;;;;;5.22;4.68;;;;;;;;;;5032822;28;20492;-73
2021/10/18 01:32:56;;;;;;;5.03;4.07;;;;;;;;;;5032754;28;20095;-73
2021/10/18 01:35:41;;;;;;;5.15;4.30;;;;;;;;;;5032735;28;20036;-73
2021/10/18 01:38:25;;;;;;;4.63;3.95;;;;;;;;;;5017706;28;20032;-73
2021/10/18 01:41:10;;;;;;;5.78;4.15;;;;;;;;;;5032509;28;20053;-73
2021/10/18 01:43:54;;;;;;;6.72;4.55;;;;;;;;;;5032579;28;20032;-73
2021/10/18 01:46:39;;;;;;;6.68;4.40;;;;;;;;;;5032461;28;20098;-73
2021/10/18 01:49:23;;;;;;;5.65;4.40;;;;;;;;;;5032494;28;20080;-73
2021/10/18 01:52:08;;;;;;;5.80;4.10;;;;;;;;;;5032444;28;20103;-73
2021/10/18 01:54:52;;;;;;;5.70;4.32;;;;;;;;;;5017219;28;20079;-73
2021/10/18 01:57:37;;;;;;;6.93;4.30;;;;;;;;;;5032267;28;20068;-73
2021/10/18 02:00:22;;;;;;;5.53;4.10;;;;;;;;;;5017372;28;20095;-73
2021/10/18 02:03:06;;;;;;;5.05;4.00;;;;;;;;;;5032041;28;20048;-73
2021/10/18 02:05:51;;;;;;;5.63;4.45;;;;;;;;;;5017110;28;20091;-73
2021/10/18 02:08:36;;;;;;;5.53;4.35;;;;;;;;;;5032446;28;20183;-73
2021/10/18 02:11:20;;;;;;;6.85;4.72;;;;;;;;;;5017992;28;20048;-73
2021/10/18 02:14:05;;;;;;;6.78;4.72;;;;;;;;;;5032840;28;20431;-73
2021/10/18 02:16:49;;;;;;;5.72;4.38;;;;;;;;;;5032652;28;20060;-73
2021/10/18 02:19:34;;;;;;;6.20;4.60;;;;;;;;;;5032629;28;20072;-73
2021/10/18 02:22:18;;;;;;;5.72;4.50;;;;;;;;;;5032069;28;20111;-73
2021/10/18 02:25:04;;;;;;;6.85;5.07;;;;;;;;;;5032607;28;20086;-73
2021/10/18 02:27:48;;;;;;;6.15;4.63;;;;;;;;;;5032393;28;20676;-73
2021/10/18 02:30:33;;;;;;;7.75;5.03;;;;;;;;;;5032424;28;20041;-73
2021/10/18 02:33:17;;;;;;;6.43;4.65;;;;;;;;;;5032434;28;20091;-73
2021/10/18 02:36:02;;;;;;;5.22;4.43;;;;;;;;;;5017476;28;20169;-73
2021/10/18 02:38:47;;;;;;;6.35;5.07;;;;;;;;;;5032248;28;20044;-73
2021/10/18 02:41:32;;;;;;;6.78;5.05;;;;;;;;;;5017392;28;20056;-73
2021/10/18 02:44:16;;;;;;;6.65;5.13;;;;;;;;;;5032149;28;20040;-73
2021/10/18 02:47:01;;;;;;;6.47;5.30;;;;;;;;;;5016957;28;20053;-73
2021/10/18 02:49:45;;;;;;;6.88;4.85;;;;;;;;;;5032552;28;20036;-73
2021/10/18 02:52:30;;;;;;;6.70;5.07;;;;;;;;;;5017115;28;20408;-73
2021/10/18 02:55:14;;;;;;;7.60;4.70;;;;;;;;;;5031876;28;20036;-73
2021/10/18 02:57:59;;;;;;;6.47;5.20;;;;;;;;;;5031957;28;20091;-73
2021/10/18 03:00:43;;;;;;;7.80;5.28;;;;;;;;;;5031988;28;20037;-73
2021/10/18 03:03:28;;;;;;;7.47;4.60;;;;;;;;;;5031897;28;20048;-73
2021/10/18 03:06:12;;;;;;;6.93;5.20;;;;;;;;;;5031935;28;20039;-73
2021/10/18 03:08:59;;;;;;;6.85;4.95;;;;;;;;;;5031829;28;20040;-73
2021/10/18 03:11:43;;;;;;;8.13;5.30;;;;;;;;;;5017114;28;20090;-73
2021/10/18 03:14:27;;;;;;;7.32;5.10;;;;;;;;;;5031837;28;20041;-73
2021/10/18 03:17:12;;;;;;;6.60;5.13;;;;;;;;;;5016879;28;20116;-73
2021/10/18 03:19:57;;;;;;;8.10;5.20;;;;;;;;;;5031773;28;20492;-73
2021/10/18 03:22:41;;;;;;;7.82;5.20;;;;;;;;;;5016737;28;20083;-73
2021/10/18 03:25:26;;;;;;;7.78;4.75;;;;;;;;;;5016806;28;20064;-73
2021/10/18 03:28:11;;;;;;;6.13;5.50;;;;;;;;;;5031522;28;20413;-73
2021/10/18 03:30:55;;;;;;;7.93;5.40;;;;;;;;;;5031520;28;20142;-73
2021/10/18 03:33:40;;;;;;;7.68;5.43;;;;;;;;;;5033752;28;20496;-73
2021/10/18 03:36:25;;;;;;;8.05;5.55;;;;;;;;;;5035854;28;20045;-73
2021/10/18 03:39:10;;;;;;;8.15;5.43;;;;;;;;;;5036338;28;20164;-73
2021/10/18 03:41:54;;;;;;;6.90;5.57;;;;;;;;;;5035660;28;20107;-73
2021/10/18 03:44:38;;;;;;;8.98;5.63;;;;;;;;;;5035602;28;20083;-73
2021/10/18 03:47:23;;;;;;;7.57;5.75;;;;;;;;;;5020296;28;20047;-73
2021/10/18 03:50:08;;;;;;;7.10;6.00;;;;;;;;;;5020820;28;20107;-73
2021/10/18 03:52:52;;;;;;;8.25;5.70;;;;;;;;;;5020556;28;20055;-73
2021/10/18 03:55:37;;;;;;;8.43;6.55;;;;;;;;;;5035332;28;20045;-73
2021/10/18 03:58:22;;;;;;;7.32;6.00;;;;;;;;;;5035253;28;20048;-73
2021/10/18 04:01:09;;;;;;;9.65;5.78;;;;;;;;;;5035278;28;20041;-73
2021/10/18 04:03:53;;;;;;;8.88;5.75;;;;;;;;;;5035297;28;20465;-73
2021/10/18 04:06:38;;;;;;;8.73;5.80;;;;;;;;;;5035248;28;20036;-73
2021/10/18 04:09:22;;;;;;;8.57;6.10;;;;;;;;;;5035097;28;20044;-73
2021/10/18 04:12:07;;;;;;;7.70;5.97;;;;;;;;;;5035108;28;20075;-73
2021/10/18 04:14:52;;;;;;;8.13;6.00;;;;;;;;;;5035072;28;20040;-73
2021/10/18 04:17:36;;;;;;;8.68;6.55;;;;;;;;;;5035092;28;20091;-73
2021/10/18 04:20:21;;;;;;;8.75;6.13;;;;;;;;;;5020065;28;20119;-73
2021/10/18 04:23:05;;;;;;;10.05;7.05;;;;;;;;;;5006187;28;20514;-73
2021/10/18 04:25:50;;;;;;;8.60;6.03;;;;;;;;;;5034813;28;20040;-73
2021/10/18 04:28:34;;;;;;;7.30;6.03;;;;;;;;;;5034722;28;20095;-73
2021/10/18 04:31:19;;;;;;;7.93;6.22;;;;;;;;;;5034721;28;20041;-73
2021/10/18 04:34:04;;;;;;;8.25;6.38;;;;;;;;;;5034815;28;20401;-72
2021/10/18 04:36:48;;;;;;;7.88;6.10;;;;;;;;;;5034558;28;20091;-73
2021/10/18 04:39:33;;;;;;;9.20;6.28;;;;;;;;;;5034607;28;20052;-73
2021/10/18 04:42:17;;;;;;;8.57;6.25;;;;;;;;;;5034342;28;20397;-73
2021/10/18 04:45:02;;;;;;;8.90;6.55;;;;;;;;;;5019239;28;20040;-73
2021/10/18 04:47:48;;;;;;;9.00;6.55;;;;;;;;;;5034092;28;20095;-73
2021/10/18 04:50:33;;;;;;;7.75;6.10;;;;;;;;;;5033444;28;20168;-73
2021/10/18 04:53:17;;;;;;;9.18;6.53;;;;;;;;;;5018452;28;20044;-73
2021/10/18 04:56:02;;;;;;;7.95;6.03;;;;;;;;;;5033342;28;20091;-73
2021/10/18 04:58:46;;;;;;;8.60;6.20;;;;;;;;;;5033375;28;20388;-73
2021/10/18 05:01:31;;;;;;;9.32;6.53;;;;;;;;;;5033266;28;20052;-73
2021/10/18 05:04:15;;;;;;;8.65;6.57;;;;;;;;;;5033242;28;20044;-73
2021/10/18 05:07:00;;;;;;;8.05;6.43;;;;;;;;;;5033284;28;20037;-73
2021/10/18 05:09:44;;;;;;;8.95;6.68;;;;;;;;;;5033151;28;20092;-73
2021/10/18 05:12:29;;;;;;;8.57;6.13;;;;;;;;;;5033215;28;20036;-73
2021/10/18 05:15:13;;;;;;;9.68;6.90;;;;;;;;;;5033046;28;20102;-73
2021/10/18 05:18:00;;;;;;;9.07;6.25;;;;;;;;;;5032918;28;20041;-73
2021/10/18 05:20:44;;;;;;;8.02;6.05;;;;;;;;;;5033112;28;20135;-73
2021/10/18 05:23:29;;;;;;;8.00;6.13;;;;;;;;;;5033027;28;20124;-73
2021/10/18 05:26:13;;;;;;;9.20;6.10;;;;;;;;;;5032916;28;20393;-73
2021/10/18 05:28:58;;;;;;;7.90;5.65;;;;;;;;;;5032853;28;20044;-73
2021/10/18 05:31:42;;;;;;;8.48;6.18;;;;;;;;;;5032771;28;20484;-73
2021/10/18 05:34:27;;;;;;;7.43;5.28;;;;;;;;;;5032858;28;20039;-73
2021/10/18 05:37:11;;;;;;;8.10;5.38;;;;;;;;;;5032566;28;20044;-73
2021/10/18 05:39:56;;;;;;;6.72;5.30;;;;;;;;;;5032607;28;20037;-74
2021/10/18 05:42:40;;;;;;;7.53;5.38;;;;;;;;;;5032626;28;20072;-73
2021/10/18 05:45:24;;;;;;;7.28;5.07;;;;;;;;;;5032530;28;20045;-73
2021/10/18 05:48:10;;;;;;;7.47;5.07;;;;;;;;;;5032350;28;20536;-73
2021/10/18 05:50:55;;;;;;;6.82;5.15;;;;;;;;;;5032444;28;20036;-73
2021/10/18 05:53:40;;;;;;;7.30;4.75;;;;;;;;;;5017593;28;20099;-73
2021/10/18 05:56:25;;;;;;;7.70;5.32;;;;;;;;;;5031418;28;20495;-73
2021/10/18 05:59:10;;;;;;;6.88;5.30;;;;;;;;;;5032249;28;20072;-73
2021/10/18 06:01:54;;;;;;;6.90;4.57;;;;;;;;;;5032191;28;20128;-74
2021/10/18 06:04:44;;;;;;;5.55;4.40;;;;;;;;;;5032099;28;20087;-74
2021/10/18 06:07:28;;;;;;;7.30;5.10;;;;;;;;;;5032031;28;20099;-73
2021/10/18 06:10:13;;;;;;;5.85;4.50;;;;;;;;;;5017121;28;20037;-74
2021/10/18 06:12:58;;;;;;;5.80;4.82;;;;;;;;;;5032084;28;20044;-73
2021/10/18 06:15:42;;;;;;;6.32;4.70;;;;;;;;;;5032026;28;20583;-73
2021/10/18 06:18:27;;;;;;;6.60;4.72;;;;;;;;;;5016952;28;20098;-73
2021/10/18 06:21:11;;;;;;;6.25;4.22;;;;;;;;;;5031787;28;20086;-73
2021/10/18 06:23:56;;;;;;;5.75;4.40;;;;;;;;;;5031824;28;20115;-73
2021/10/18 06:26:41;;;;;;;5.63;4.00;;;;;;;;;;5031820;28;20091;-73
2021/10/18 06:29:27;;;;;;;5.80;4.35;;;;;;;;;;5031696;28;20444;-73
2021/10/18 06:32:11;;;;;;;5.85;4.30;;;;;;;;;;5031664;28;20452;-73
2021/10/18 06:34:56;;;;;;;5.25;3.90;;;;;;;;;;5031657;28;20103;-72
2021/10/18 06:37:40;;;;;;;5.25;4.03;;;;;;;;;;5031505;28;20045;-73
2021/10/18 06:40:25;;;;;;;6.85;4.18;;;;;;;;;;5031612;28;20393;-72
2021/10/18 06:43:10;;;;;;;4.95;3.83;;;;;;;;;;5031431;28;20462;-73
2021/10/18 06:45:54;;;;;;;5.80;4.40;;;;;;;;;;5031362;28;20492;-73
2021/10/18 06:48:38;;;;;;;5.40;3.58;;;;;;;;;;5031156;28;20048;-72
2021/10/18 06:51:24;;;;;;;4.50;3.35;;;;;;;;;;5031733;28;20048;-73
2021/10/18 06:54:09;;;;;;;6.20;4.25;;;;;;;;;;5031239;28;20128;-73
2021/10/18 06:56:54;;;;;;;4.57;3.50;;;;;;;;;;5031053;28;20091;-72
2021/10/18 06:59:38;;;;;;;5.35;4.07;;;;;;;;;;5031237;28;20136;-73
2021/10/18 07:02:23;;;;;;;5.28;3.63;;;;;;;;;;5031175;28;20484;-72
2021/10/18 07:05:08;;;;;;;4.95;3.70;;;;;;;;;;5031027;28;20044;-72
2021/10/18 07:07:52;;;;;;;4.88;3.58;;;;;;;;;;5031110;28;20408;-73
2021/10/18 07:10:37;;;;;;;5.03;3.55;;;;;;;;;;5031084;28;20040;-73
2021/10/18 07:13:21;;;;;;;4.53;3.20;;;;;;;;;;5031081;28;20044;-73
2021/10/18 07:16:06;;;;;;;5.22;3.67;;;;;;;;;;5016086;28;20052;-73
2021/10/18 07:18:50;;;;;;;4.07;3.22;;;;;;;;;;5030896;28;20044;-73
2021/10/18 07:21:36;;;;;;;4.47;3.42;;;;;;;;;;5015918;28;20045;-72
2021/10/18 07:24:20;;;;;;;5.07;3.80;;;;;;;;;;5030879;28;20135;-73
2021/10/18 07:27:05;;;;;;;4.40;3.40;;;;;;;;;;5030715;28;20120;-73
2021/10/18 07:29:49;;;;;;;4.65;3.67;;;;;;;;;;5030839;28;20449;-73
2021/10/18 07:32:35;;;;;;;7.18;3.70;;;;;;;;;;5030803;28;20460;-73
2021/10/18 07:35:22;;;;;;;4.93;3.40;;;;;;;;;;5030970;28;20048;-73
2021/10/18 07:38:09;;;;;;;4.80;3.47;;;;;;;;;;5030852;28;20188;-73
2021/10/18 07:40:54;;;;;;;4.95;3.33;;;;;;;;;;5030739;28;20126;-73
2021/10/18 07:43:39;;;;;;;4.32;3.10;;;;;;;;;;5030484;28;20048;-73
2021/10/18 07:46:23;;;;;;;3.95;2.92;;;;;;;;;;5015641;28;20063;-73
2021/10/18 07:49:08;;;;;;;3.60;2.80;;;;;;;;;;5030813;28;20059;-73
2021/10/18 07:51:52;;;;;;;4.53;3.28;;;;;;;;;;5016051;28;20032;-73
2021/10/18 07:54:37;;;;;;;3.97;2.78;;;;;;;;;;5030528;28;20040;-73
2021/10/18 07:57:22;;;;;;;4.28;2.90;;;;;;;;;;5015522;28;20083;-73
2021/10/18 08:00:06;;;;;;;3.40;2.63;;;;;;;;;;5031296;28;20500;-72
2021/10/18 08:02:51;;;;;;;4.32;2.83;;;;;;;;;;5016264;28;20543;-73
2021/10/18 08:05:36;;;;;;;4.45;3.20;;;;;;;;;;5031285;28;20397;-73
2021/10/18 08:08:21;;;;;;;3.78;2.65;;;;;;;;;;5031317;28;20084;-73
2021/10/18 08:11:07;;;;;;;3.72;2.78;;;;;;;;;;5031136;28;20064;-72
2021/10/18 08:13:51;;;;;;;3.88;2.72;;;;;;;;;;5016231;28;20408;-73
2021/10/18 08:16:36;;;;;;;3.78;2.85;;;;;;;;;;5016153;28;20042;-73
2021/10/18 08:19:21;;;;;;;3.40;2.40;;;;;;;;;;5032590;28;20176;-73
2021/10/18 08:22:05;;;;;;;3.70;2.75;;;;;;;;;;5034428;28;20102;-73
2021/10/18 08:24:50;;;;;;;3.78;2.55;;;;;;;;;;5034242;28;20455;-73
2021/10/18 08:27:36;;;;;;;3.90;2.70;;;;;;;;;;5033730;28;20041;-72
2021/10/18 08:30:21;;;;;;;3.50;2.65;;;;;;;;;;5033775;28;20082;-72
2021/10/18 08:33:06;;;;;;;3.25;2.50;;;;;;;;;;5033775;28;20518;-73
2021/10/18 08:35:50;;;;;;;3.88;2.88;;;;;;;;;;5033721;28;20581;-73
2021/10/18 08:41:36;;;;;;;3.35;2.42;;;;;;;;;;5033389;28;20048;-73
2021/10/18 08:44:21;;;;;;;3.60;2.53;;;;;;;;;;5033486;28;20127;-73
2021/10/18 08:47:05;;;;;;;3.58;2.40;;;;;;;;;;5033437;28;20051;-73
2021/10/18 08:49:50;;;;;;;3.80;2.60;;;;;;;;;;5033675;28;20080;-73
2021/10/18 08:52:35;;;;;;;2.70;2.00;;;;;;;;;;5018385;28;20079;-73
2021/10/18 08:55:19;;;;;;;2.78;2.03;;;;;;;;;;5033424;28;20083;-73
2021/10/18 08:58:04;;;;;;;3.78;2.35;;;;;;;;;;5018296;28;20099;-73
2021/10/18 09:00:52;;;;;;;4.13;2.03;;;;;;;;;;5033415;28;20373;-73
2021/10/18 09:03:37;;;;;;;2.83;2.05;;;;;;;;;;5033466;28;20103;-73
2021/10/18 09:06:22;;;;;;;3.10;2.05;;;;;;;;;;5033456;28;20054;-73
2021/10/18 09:09:08;;;;;;;2.90;2.00;;;;;;;;;;5033226;28;20044;-73
2021/10/18 09:11:53;;;;;;;2.88;1.85;;;;;;;;;;5033261;28;20037;-73
2021/10/18 09:14:38;;;;;;;2.35;1.90;;;;;;;;;;5017901;28;20415;-73
2021/10/18 09:17:32;;;;;;;3.88;2.10;;;;;;;;;;5032493;28;20045;-73
2021/10/18 09:20:21;;;;;;;3.17;1.90;;;;;;;;;;5032723;28;20496;-73
2021/10/18 09:23:40;;;;;;;3.10;1.90;;;;;;;;;;5032679;28;20068;-73
2021/10/18 09:26:25;;;;;;;2.67;1.75;;;;;;;;;;5028914;28;20180;-73
2021/10/18 09:29:10;;;;;;;3.25;1.75;;;;;;;;;;5032720;28;20041;-73
2021/10/18 09:31:59;;;;;;;2.50;1.60;;;;;;;;;;5031531;28;20060;-73
2021/10/18 09:34:44;;;;;;;2.47;1.73;;;;;;;;;;5032544;28;20064;-73
2021/10/18 09:37:28;;;;;;;2.60;1.70;;;;;;;;;;5032457;28;20552;-73
2021/10/18 09:40:29;;;;;;;2.80;1.60;;;;;;;;;;5017680;28;20057;-73
2021/10/18 09:43:14;;;;;;;2.33;1.50;;;;;;;;;;5032598;28;20521;-73
2021/10/18 09:46:39;;;;;;;2.20;1.40;;;;;;;;;;5017545;28;20056;-73
2021/10/18 10:51:55;;;;;;;2.20;1.20;;;;;;;;;;5031235;28;20071;-72
2021/10/18 10:54:41;;;;;;;1.45;1.00;;;;;;;;;;5004884;28;20052;-71
2021/10/18 10:57:32;;;;;;;2.03;0.95;;;;;;;;;;5031269;28;20141;-72
2021/10/18 11:00:43;;;;;;;2.83;1.02;;;;;;;;;;5030534;28;20037;-72
2021/10/18 11:03:31;;;;;;;2.05;1.10;;;;;;;;;;5030822;28;20544;-72
2021/10/18 11:06:15;;;;;;;1.35;1.02;;;;;;;;;;5031081;28;20045;-72
2021/10/18 11:09:00;;;;;;;1.25;0.70;;;;;;;;;;5016225;28;20083;-73
2021/10/18 11:11:45;;;;;;;2.17;1.00;;;;;;;;;;5030252;28;20072;-73
2021/10/18 11:14:29;;;;;;;2.08;0.80;;;;;;;;;;5016185;28;20099;-73
2021/10/18 11:17:15;;;;;;;2.38;0.95;;;;;;;;;;5002201;28;20115;-73
2021/10/18 11:20:01;;;;;;;1.58;0.98;;;;;;;;;;5031035;28;20457;-73
2021/10/18 11:22:49;;;;;;;1.95;0.80;;;;;;;;;;5029643;28;20103;-73
2021/10/18 11:25:36;;;;;;;1.65;1.00;;;;;;;;;;5001059;28;20115;-73
2021/10/18 11:28:20;;;;;;;2.80;0.90;;;;;;;;;;5030606;28;20559;-73
2021/10/18 11:31:05;;;;;;;2.20;1.00;;;;;;;;;;5015926;28;20083;-73
2021/10/18 11:34:02;;;;;;;2.42;1.20;;;;;;;;;;5015474;28;20040;-73
2021/10/18 11:36:47;;;;;;;2.53;1.40;;;;;;;;;;5029956;28;20123;-73
2021/10/18 11:39:32;;;;;;;2.42;1.40;;;;;;;;;;5014730;28;20049;-73
2021/10/18 11:42:17;;;;;;;2.00;1.20;;;;;;;;;;5029478;28;20084;-73
2021/10/18 11:45:03;;;;;;;1.90;1.17;;;;;;;;;;5015363;28;20035;-73
2021/10/18 11:47:47;;;;;;;2.20;1.20;;;;;;;;;;5014478;28;20576;-73
2021/10/18 11:50:36;;;;;;;2.03;1.38;;;;;;;;;;5030165;28;20037;-73
2021/10/18 11:53:21;;;;;;;2.60;1.02;;;;;;;;;;5015796;28;20091;-73
2021/10/18 11:56:06;;;;;;;2.22;1.33;;;;;;;;;;5018483;28;20115;-73
2021/10/18 11:58:51;;;;;;;2.50;1.00;;;;;;;;;;5018114;28;20562;-72
2021/10/18 12:01:36;;;;;;;2.15;1.25;;;;;;;;;;5032874;28;20075;-74
2021/10/18 12:04:21;;;;;;;2.17;1.20;;;;;;;;;;5033432;28;20044;-73
2021/10/18 12:07:05;;;;;;;2.92;1.10;;;;;;;;;;5018734;28;20076;-73
2021/10/18 12:09:49;;;;;;;1.77;1.17;;;;;;;;;;5033083;28;20567;-72
2021/10/18 12:12:34;;;;;;;2.25;1.20;;;;;;;;;;5018121;28;20039;-74
2021/10/18 12:15:18;;;;;;;1.63;1.10;;;;;;;;;;5019179;28;20044;-74
2021/10/18 12:18:03;;;;;;;1.95;1.00;;;;;;;;;;5005309;28;20040;-73
2021/10/18 12:20:49;;;;;;;1.98;1.00;;;;;;;;;;5019355;28;20049;-74
2021/10/18 12:23:37;;;;;;;2.63;1.45;;;;;;;;;;5033884;28;20461;-74
2021/10/18 12:26:23;;;;;;;1.83;1.00;;;;;;;;;;5018656;28;20037;-74
2021/10/18 12:29:08;;;;;;;3.38;1.65;;;;;;;;;;5034003;28;20511;-74
2021/10/18 12:31:54;;;;;;;1.70;1.20;;;;;;;;;;5018986;28;20049;-74
2021/10/18 12:34:38;;;;;;;2.40;1.30;;;;;;;;;;5033800;28;20079;-74
2021/10/18 12:37:23;;;;;;;1.58;0.98;;;;;;;;;;5018982;28;20109;-74
2021/10/18 12:40:08;;;;;;;1.90;0.90;;;;;;;;;;5004983;28;20527;-73
2021/10/18 12:42:52;;;;;;;3.45;2.03;;;;;;;;;;5018598;28;20645;-74
2021/10/18 12:45:37;;;;;;;2.97;1.77;;;;;;;;;;5033441;28;20037;-74
2021/10/18 12:48:22;;;;;;;4.25;2.67;;;;;;;;;;5033716;28;20103;-73
2021/10/18 12:51:07;;;;;;;3.33;1.83;;;;;;;;;;5019061;28;20036;-74
2021/10/18 12:53:52;;;;;;;3.17;2.10;;;;;;;;;;5004700;28;20110;-74
2021/10/18 12:56:37;;;;;;;2.58;1.50;;;;;;;;;;5004503;28;20090;-74
2021/10/18 12:59:21;;;;;;;3.03;1.30;;;;;;;;;;5033097;28;20071;-74
2021/10/18 13:02:19;;;;;;;3.25;2.00;;;;;;;;;;5031980;28;20048;-74
2021/10/18 13:05:16;;;;;;;2.22;1.42;;;;;;;;;;5017576;28;20121;-74
2021/10/18 13:08:01;;;;;;;3.88;1.42;;;;;;;;;;5033429;28;20041;-73
2021/10/18 13:10:47;;;;;;;9.82;5.25;;;;;;;;;;5018418;28;20489;-73
2021/10/18 13:13:32;;;;;;;7.47;3.70;;;;;;;;;;5004533;28;20098;-73
2021/10/18 13:16:16;;;;;;;4.68;3.28;;;;;;;;;;5017770;28;20095;-73
2021/10/18 13:19:01;;;;;;;4.90;2.20;;;;;;;;;;5032314;28;20056;-73
2021/10/18 13:21:46;;;;;;;3.58;2.30;;;;;;;;;;5032275;28;20072;-73
2021/10/18 13:24:30;;;;;;;3.22;2.08;;;;;;;;;;5017265;28;20053;-73
2021/10/18 13:27:15;;;;;;;4.35;2.38;;;;;;;;;;5032246;28;20112;-73
2021/10/18 13:30:00;;;;;;;3.30;2.03;;;;;;;;;;5032606;28;20111;-73
2021/10/18 13:32:45;;;;;;;4.05;2.25;;;;;;;;;;5031651;28;20163;-73
2021/10/18 13:35:29;;;;;;;4.75;2.10;;;;;;;;;;5002806;28;20040;-73
2021/10/18 13:38:14;;;;;;;4.45;2.00;;;;;;;;;;5016638;28;20115;-73
2021/10/18 13:40:58;;;;;;;3.47;1.90;;;;;;;;;;5032447;28;20554;-74
2021/10/18 13:43:43;;;;;;;3.45;2.05;;;;;;;;;;5032766;28;20053;-73
2021/10/18 13:46:27;;;;;;;3.67;2.15;;;;;;;;;;5017586;28;20072;-73
2021/10/18 13:49:11;;;;;;;4.80;2.28;;;;;;;;;;5032560;28;20499;-73
2021/10/18 13:51:56;;;;;;;2.67;1.70;;;;;;;;;;5032610;28;20044;-73
2021/10/18 13:54:41;;;;;;;2.90;1.63;;;;;;;;;;5004016;28;20044;-73
2021/10/18 13:57:29;;;;;;;3.95;1.58;;;;;;;;;;5017455;28;20083;-73
2021/10/18 14:00:14;;;;;;;2.50;1.60;;;;;;;;;;5017973;28;20049;-73
2021/10/18 14:02:59;;;;;;;2.63;1.60;;;;;;;;;;5032225;28;20049;-73
2021/10/18 14:05:43;;;;;;;3.42;2.03;;;;;;;;;;5032169;28;20080;-73
2021/10/18 14:08:28;;;;;;;3.53;2.03;;;;;;;;;;5032105;28;20119;-73
2021/10/18 14:11:12;;;;;;;3.72;2.20;;;;;;;;;;5017160;28;20044;-73
2021/10/18 14:13:57;;;;;;;3.28;1.75;;;;;;;;;;5003152;28;20568;-73
2021/10/18 14:16:41;;;;;;;3.20;1.50;;;;;;;;;;5016502;28;20500;-73
2021/10/18 14:19:25;;;;;;;3.03;1.50;;;;;;;;;;5017050;28;20036;-73
2021/10/18 14:22:11;;;;;;;2.65;1.45;;;;;;;;;;5016953;28;20120;-72
2021/10/18 14:24:56;;;;;;;2.83;1.48;;;;;;;;;;5003375;28;20036;-73
2021/10/18 14:27:40;;;;;;;2.60;1.58;;;;;;;;;;5031950;28;20045;-73
2021/10/18 14:30:25;;;;;;;3.17;1.60;;;;;;;;;;5031921;28;20043;-72
2021/10/18 14:33:10;;;;;;;1.80;1.15;;;;;;;;;;5016994;28;20408;-72
2021/10/18 14:35:55;;;;;;;3.00;1.73;;;;;;;;;;5031743;28;20044;-72
2021/10/18 14:38:39;;;;;;;2.40;1.40;;;;;;;;;;5016946;28;20192;-72
2021/10/18 14:41:26;;;;;;;2.10;1.48;;;;;;;;;;5016715;28;20080;-72
2021/10/18 14:44:11;;;;;;;2.67;1.52;;;;;;;;;;5003112;28;20041;-72
2021/10/18 14:46:55;;;;;;;2.85;1.50;;;;;;;;;;5002736;28;20080;-71
2021/10/18 14:49:40;;;;;;;2.40;1.20;;;;;;;;;;5016581;28;20084;-72
2021/10/18 14:52:24;;;;;;;4.00;1.35;;;;;;;;;;5031899;28;20036;-72
2021/10/18 14:55:10;;;;;;;3.38;1.35;;;;;;;;;;5002814;28;20530;-73
2021/10/18 14:57:54;;;;;;;1.92;1.20;;;;;;;;;;5002485;28;20046;-72
2021/10/18 15:00:39;;;;;;;3.03;1.40;;;;;;;;;;5016304;28;20048;-72
2021/10/18 15:03:24;;;;;;;2.13;1.20;;;;;;;;;;5030978;28;20098;-72
2021/10/18 15:06:09;;;;;;;2.28;1.48;;;;;;;;;;5031199;28;20044;-72
2021/10/18 15:08:54;;;;;;;1.55;1.10;;;;;;;;;;5016349;28;20107;-72
2021/10/18 15:11:39;;;;;;;2.08;1.38;;;;;;;;;;5031198;28;20060;-72
2021/10/18 15:14:24;;;;;;;3.10;1.45;;;;;;;;;;5030996;28;20040;-72
2021/10/18 15:17:08;;;;;;;3.08;1.23;;;;;;;;;;5031165;28;20043;-73
2021/10/18 15:19:53;;;;;;;2.15;1.17;;;;;;;;;;5030992;28;20087;-72
2021/10/18 15:22:38;;;;;;;2.47;1.40;;;;;;;;;;5030876;28;20048;-72
2021/10/18 15:25:22;;;;;;;2.83;1.20;;;;;;;;;;5002396;28;20146;-73
2021/10/18 15:28:07;;;;;;;2.78;1.65;;;;;;;;;;5030503;28;20076;-72
2021/10/18 15:30:51;;;;;;;1.80;1.25;;;;;;;;;;5015890;28;20099;-73
2021/10/18 15:33:36;;;;;;;3.47;1.30;;;;;;;;;;5030953;28;20485;-72
2021/10/18 15:36:21;;;;;;;1.80;1.05;;;;;;;;;;5030800;28;20040;-72
2021/10/18 15:39:06;;;;;;;2.55;1.27;;;;;;;;;;5031000;28;20040;-73
2021/10/18 15:41:51;;;;;;;2.05;1.40;;;;;;;;;;5030568;28;20091;-72
2021/10/18 15:44:35;;;;;;;2.15;1.30;;;;;;;;;;5015880;28;20096;-72
2021/10/18 15:47:21;;;;;;;2.22;1.10;;;;;;;;;;5030604;28;20044;-73
2021/10/18 15:50:06;;;;;;;1.42;1.05;;;;;;;;;;5031568;28;20141;-73
2021/10/18 15:52:50;;;;;;;2.47;1.20;;;;;;;;;;5030715;28;20412;-73
2021/10/18 15:55:35;;;;;;;1.58;1.05;;;;;;;;;;5015708;28;20091;-73
2021/10/18 15:58:20;;;;;;;2.78;1.20;;;;;;;;;;5030643;28;20037;-73
2021/10/18 16:01:04;;;;;;;1.42;1.20;;;;;;;;;;5015673;28;20048;-72
2021/10/18 16:03:48;;;;;;;2.90;1.15;;;;;;;;;;5030310;28;20055;-72
2021/10/18 16:06:33;;;;;;;1.95;1.13;;;;;;;;;;5014316;28;20052;-73
2021/10/18 16:09:18;;;;;;;3.85;1.75;;;;;;;;;;5015242;28;20056;-71
2021/10/18 16:12:03;;;;;;;6.57;1.83;;;;;;;;;;5029650;28;20048;-70
2021/10/18 16:14:47;;;;;;;3.75;1.50;;;;;;;;;;5030257;28;20135;-71
2021/10/18 16:17:32;;;;;;;3.20;1.60;;;;;;;;;;5034425;28;20122;-69
2021/10/18 16:20:16;;;;;;;2.35;1.77;;;;;;;;;;5029688;28;20504;-70
2021/10/18 16:23:01;;;;;;;2.40;1.60;;;;;;;;;;5030377;28;20052;-69
2021/10/18 16:25:50;;;;;;;6.40;1.95;;;;;;;;;;5030431;28;20055;-69
2021/10/18 16:28:35;;;;;;;4.05;1.55;;;;;;;;;;5030529;28;20060;-72
2021/10/18 16:31:20;;;;;;;2.40;1.50;;;;;;;;;;5030752;28;20064;-71
2021/10/18 16:34:04;;;;;;;2.63;1.50;;;;;;;;;;5030650;28;20504;-70
2021/10/18 16:36:49;;;;;;;4.28;1.50;;;;;;;;;;5030125;28;20144;-71
2021/10/18 16:39:33;;;;;;;2.90;1.40;;;;;;;;;;5030973;28;20041;-71
2021/10/18 16:42:18;;;;;;;2.60;1.30;;;;;;;;;;5033283;28;20468;-70
2021/10/18 16:45:03;;;;;;;2.75;1.50;;;;;;;;;;5018732;28;20049;-70
2021/10/18 16:47:48;;;;;;;2.85;1.23;;;;;;;;;;5018465;28;20121;-71
2021/10/18 16:50:32;;;;;;;1.90;1.40;;;;;;;;;;5031767;28;20040;-72
2021/10/18 16:53:17;;;;;;;2.53;1.50;;;;;;;;;;5015721;28;20440;-71
2021/10/18 16:56:02;;;;;;;2.58;1.30;;;;;;;;;;5016804;28;20033;-71
2021/10/18 16:58:46;;;;;;;3.72;1.75;;;;;;;;;;5018881;28;20099;-70
2021/10/18 17:01:31;;;;;;;3.33;1.55;;;;;;;;;;5032505;28;20108;-69
2021/10/18 17:04:15;;;;;;;2.17;1.30;;;;;;;;;;5033143;28;20052;-70
2021/10/18 17:07:00;;;;;;;3.15;1.40;;;;;;;;;;5017254;28;20079;-70
2021/10/18 17:09:45;;;;;;;3.13;1.42;;;;;;;;;;5033178;28;20560;-69
2021/10/18 17:12:30;;;;;;;2.03;1.38;;;;;;;;;;5033420;28;20037;-69
2021/10/18 17:15:14;;;;;;;2.30;1.60;;;;;;;;;;5018237;28;20047;-68
2021/10/18 17:17:59;;;;;;;3.10;1.48;;;;;;;;;;5018150;28;20072;-71
2021/10/18 17:20:43;;;;;;;2.78;1.73;;;;;;;;;;5032856;28;20048;-71
2021/10/18 17:23:28;;;;;;;2.53;1.30;;;;;;;;;;5033030;28;20158;-71
2021/10/18 17:26:13;;;;;;;3.35;1.80;;;;;;;;;;5033102;28;20037;-71
2021/10/18 17:28:57;;;;;;;3.30;1.90;;;;;;;;;;5017760;28;20044;-71
2021/10/18 17:31:43;;;;;;;2.50;1.80;;;;;;;;;;5004182;28;20053;-71
2021/10/18 17:34:31;;;;;;;4.78;1.50;;;;;;;;;;5032857;28;20045;-71
2021/10/18 17:37:16;;;;;;;3.35;1.70;;;;;;;;;;5018285;28;20040;-71